Strona główna
METAR-TAF:

METAR-TAF

Lotnisko :

North Central State Airport

Pawtucket, Rhode Island, Stany Zjednoczone

Szerokość geograficzna: 41-55N, Długość geograficzna: 071-30W, wysokość: 134 m

Aktualna obserwacja pogody

Raport powstał 20 minut temu, godzina 00:56 UTC
Wiatr 7 kt od północny zachód
Temperatura -7°C
Wilgotność 41%
Ciśnienie 1025 hPa
Widzialność: 16.1 km
bezchmurnie

METAR: KSFZ 210056Z AUTO 32007KT 10SM CLR M07/M18 A3028 RMK AO2 SLP204 T10671178 FZRANO

czas: 20:16 (01:16 UTC)


TAF: brakujący

Obserwacja i prognoza pogody dla ponad 4000 lotnisk (raport METAR i TAF).

Dostępne stacje oznaczono żółtymi i czerwonymi punktami na mapie.

Najedź kursorem aby zobaczyć nazwę stacji.

Kliknij aby zobaczyć obserwacje i prognozy pogody.

Aby zmienić mapę: kliknij na zielony przycisk z czarnym krzyżykiem, aby powiększyć; na zielony przycisk z myślnikiem, aby pomniejszyć; na zielone strzałki, aby przejść do map sąsiednich.


METAR-TAF: